createdAt,value
2018-08-11T00:00:54.560Z,1.50
2018-08-11T00:03:27.300Z,1.30
2018-08-11T00:06:01.884Z,1.50
2018-08-11T00:08:35.229Z,1.93
2018-08-11T00:11:08.457Z,1.20
2018-08-11T00:13:42.332Z,1.20
2018-08-11T00:16:17.000Z,1.47
2018-08-11T00:18:51.281Z,1.80
2018-08-11T00:21:29.921Z,1.37
2018-08-11T00:24:04.103Z,1.50
2018-08-11T00:26:36.780Z,1.60
2018-08-11T00:29:12.880Z,1.47
2018-08-11T00:31:47.526Z,1.20
2018-08-11T00:34:20.107Z,1.60
2018-08-11T00:36:54.225Z,1.30
2018-08-11T00:39:30.855Z,1.50
2018-08-11T00:42:05.804Z,1.30
2018-08-11T00:44:40.178Z,1.70
2018-08-11T00:47:13.090Z,1.57
2018-08-11T00:49:49.056Z,1.27
2018-08-11T00:52:22.728Z,1.40
2018-08-11T00:54:55.416Z,1.60
2018-08-11T00:57:28.820Z,1.50
2018-08-11T01:00:05.085Z,1.60
2018-08-11T01:02:38.210Z,1.40
2018-08-11T01:05:15.585Z,1.13
2018-08-11T01:07:49.148Z,1.57
2018-08-11T01:10:21.781Z,1.50
2018-08-11T01:12:54.420Z,1.20
2018-08-11T01:15:27.472Z,2.30
2018-08-11T01:18:01.328Z,2.57
2018-08-11T01:20:33.951Z,3.53
2018-08-11T01:23:06.710Z,3.33
2018-08-11T01:25:39.761Z,4.20
2018-08-11T01:28:12.992Z,4.20
2018-08-11T01:30:45.614Z,4.07
2018-08-11T01:33:18.625Z,4.70
2018-08-11T01:35:51.322Z,3.60
2018-08-11T01:38:23.985Z,3.80
2018-08-11T01:41:05.308Z,3.10
2018-08-11T01:43:37.970Z,3.10
2018-08-11T01:46:12.427Z,1.80
2018-08-11T01:48:44.961Z,1.90
2018-08-11T01:51:17.876Z,1.50
2018-08-11T01:53:50.593Z,1.53
2018-08-11T01:56:24.142Z,1.30
2018-08-11T01:58:57.033Z,1.30
2018-08-11T02:01:29.779Z,1.10
2018-08-11T02:04:02.386Z,1.30
2018-08-11T02:06:37.233Z,1.30
2018-08-11T02:09:11.833Z,1.50
2018-08-11T02:11:45.126Z,1.90
2018-08-11T02:14:22.997Z,1.40
2018-08-11T02:16:55.660Z,1.60
2018-08-11T02:19:28.491Z,1.50
2018-08-11T02:22:01.039Z,1.90
2018-08-11T02:24:33.784Z,2.03
2018-08-11T02:27:10.491Z,2.10
2018-08-11T02:29:43.050Z,2.20
2018-08-11T02:32:16.921Z,2.50
2018-08-11T02:34:49.413Z,2.23
2018-08-11T02:37:22.378Z,2.27
2018-08-11T02:39:55.218Z,2.00
2018-08-11T02:42:27.789Z,2.00
2018-08-11T02:45:00.614Z,1.80
2018-08-11T02:47:36.445Z,1.60
2018-08-11T02:50:11.869Z,1.50
2018-08-11T02:52:45.529Z,1.97
2018-08-11T02:55:18.037Z,1.70
2018-08-11T02:57:50.577Z,1.50
2018-08-11T03:00:23.171Z,1.70
2018-08-11T03:02:56.252Z,1.53
2018-08-11T03:05:28.991Z,1.33
2018-08-11T03:08:01.566Z,1.58
2018-08-11T03:10:38.352Z,1.60
2018-08-11T03:13:11.033Z,1.60
2018-08-11T03:15:43.553Z,1.80
2018-08-11T03:18:16.308Z,1.40
2018-08-11T03:20:48.936Z,1.50
2018-08-11T03:23:21.430Z,1.57
2018-08-11T03:25:54.232Z,1.60
2018-08-11T03:28:26.695Z,1.60
2018-08-11T03:30:59.234Z,1.83
2018-08-11T03:33:32.113Z,2.10
2018-08-11T03:36:04.832Z,1.93
2018-08-11T03:38:38.906Z,2.20
2018-08-11T03:41:11.732Z,2.00
2018-08-11T03:43:44.113Z,1.93
2018-08-11T03:46:16.776Z,2.00
2018-08-11T03:48:49.245Z,2.40
2018-08-11T03:51:22.579Z,2.17
2018-08-11T03:53:55.104Z,2.00
2018-08-11T03:56:27.673Z,1.90
2018-08-11T03:59:00.451Z,1.90
2018-08-11T04:01:33.398Z,2.40
2018-08-11T04:04:06.043Z,2.00
2018-08-11T04:06:40.299Z,2.20
2018-08-11T04:09:12.706Z,2.17
2018-08-11T04:11:45.510Z,2.03
2018-08-11T04:14:19.315Z,2.13
2018-08-11T04:16:51.892Z,2.10
2018-08-11T04:19:24.445Z,2.33
2018-08-11T04:21:57.416Z,2.00
2018-08-11T04:24:30.025Z,2.20
2018-08-11T04:27:02.656Z,2.33
2018-08-11T04:29:35.554Z,2.00
2018-08-11T04:32:08.779Z,2.10
2018-08-11T04:34:46.669Z,2.03
2018-08-11T04:37:21.748Z,1.80
2018-08-11T04:39:54.452Z,1.90
2018-08-11T04:42:27.624Z,1.97
2018-08-11T04:45:00.426Z,1.80
2018-08-11T04:47:33.839Z,1.87
2018-08-11T04:50:09.542Z,1.83
2018-08-11T04:52:56.293Z,1.90
2018-08-11T04:55:30.676Z,1.90
2018-08-11T04:58:03.434Z,2.27
2018-08-11T05:00:36.017Z,2.37
2018-08-11T05:03:09.172Z,2.70
2018-08-11T05:05:45.089Z,2.20
2018-08-11T05:08:18.849Z,2.00
2018-08-11T05:10:51.649Z,2.17
2018-08-11T05:13:24.179Z,2.83
2018-08-11T05:15:57.057Z,2.30
2018-08-11T05:18:30.034Z,2.40
2018-08-11T05:21:02.789Z,2.80
2018-08-11T05:23:37.344Z,2.63
2018-08-11T05:26:10.090Z,2.83
2018-08-11T05:28:42.735Z,2.87
2018-08-11T05:31:16.316Z,3.57
2018-08-11T05:33:50.481Z,3.77
2018-08-11T05:36:22.938Z,3.47
2018-08-11T05:38:58.824Z,3.90
2018-08-11T05:41:31.781Z,4.83
2018-08-11T05:44:04.613Z,4.10
2018-08-11T05:46:37.547Z,4.40
2018-08-11T05:49:10.404Z,4.77
2018-08-11T05:51:44.412Z,4.47
2018-08-11T05:54:16.897Z,4.33
2018-08-11T05:56:49.498Z,4.07
2018-08-11T05:59:23.044Z,4.70
2018-08-11T06:01:55.544Z,4.57
2018-08-11T06:04:28.796Z,5.17
2018-08-11T06:07:01.675Z,5.57
2018-08-11T06:09:35.872Z,5.30
2018-08-11T06:12:10.087Z,6.60
2018-08-11T06:14:44.436Z,5.77
2018-08-11T06:17:17.255Z,5.63
2018-08-11T06:19:49.952Z,5.63
2018-08-11T06:22:22.777Z,6.25
2018-08-11T06:24:55.856Z,6.40
2018-08-11T06:27:28.545Z,5.90
2018-08-11T06:30:02.804Z,6.20
2018-08-11T06:32:37.224Z,6.97
2018-08-11T06:35:09.697Z,6.23
2018-08-11T06:37:42.764Z,6.27
2018-08-11T06:40:16.284Z,6.60
2018-08-11T06:42:48.852Z,5.53
2018-08-11T06:45:23.911Z,6.07
2018-08-11T06:47:56.498Z,6.40
2018-08-11T06:50:29.591Z,5.93
2018-08-11T06:53:04.664Z,6.13
2018-08-11T06:55:38.958Z,5.80
2018-08-11T06:58:12.404Z,5.63
2018-08-11T07:00:45.311Z,5.33
2018-08-11T07:03:17.933Z,5.13
2018-08-11T07:05:53.323Z,5.07
2018-08-11T07:08:26.194Z,4.43
2018-08-11T07:10:59.783Z,4.90
2018-08-11T07:13:33.840Z,4.77
2018-08-11T07:16:08.849Z,4.73
2018-08-11T07:18:42.963Z,3.27
2018-08-11T07:21:15.629Z,3.60
2018-08-11T07:23:48.522Z,3.63
2018-08-11T07:26:21.218Z,2.93
2018-08-11T07:28:54.601Z,2.10
2018-08-11T07:31:29.638Z,2.50
2018-08-11T07:34:02.736Z,2.77
2018-08-11T07:36:36.343Z,2.30
2018-08-11T07:39:10.183Z,2.97
2018-08-11T07:41:43.404Z,2.50
2018-08-11T07:44:18.513Z,2.30
2018-08-11T07:46:52.139Z,2.50
2018-08-11T07:49:26.742Z,2.37
2018-08-11T07:52:04.052Z,1.77
2018-08-11T07:54:38.213Z,1.90
2018-08-11T07:57:13.295Z,2.20
2018-08-11T07:59:47.925Z,1.80
2018-08-11T08:02:20.572Z,2.03
2018-08-11T08:04:55.587Z,2.70
2018-08-11T08:07:29.842Z,2.23
2018-08-11T08:10:04.933Z,2.10
2018-08-11T08:12:37.926Z,2.10
2018-08-11T08:15:13.620Z,2.00
2018-08-11T08:17:46.713Z,2.70
2018-08-11T08:20:19.413Z,2.40
2018-08-11T08:22:52.170Z,2.20
2018-08-11T08:25:30.450Z,1.80
2018-08-11T08:28:03.962Z,1.60
2018-08-11T08:30:36.490Z,1.80
2018-08-11T08:33:10.637Z,1.80
2018-08-11T08:35:53.631Z,1.93
2018-08-11T08:38:26.229Z,1.60
2018-08-11T08:41:00.073Z,1.43
2018-08-11T08:43:32.961Z,1.63
2018-08-11T08:46:07.103Z,2.03
2018-08-11T08:48:40.539Z,2.10
2018-08-11T08:51:13.785Z,1.50
2018-08-11T08:53:46.308Z,1.60
2018-08-11T08:56:20.996Z,2.00
2018-08-11T08:58:53.535Z,1.30
2018-08-11T09:01:27.327Z,1.43
2018-08-11T09:04:00.595Z,1.50
2018-08-11T09:06:34.777Z,1.57
2018-08-11T09:09:11.019Z,1.60
2018-08-11T09:11:43.662Z,1.77
2018-08-11T09:14:18.637Z,1.30
2018-08-11T09:16:52.562Z,1.47
2018-08-11T09:19:25.437Z,1.40
2018-08-11T09:21:58.772Z,1.30
2018-08-11T09:24:31.179Z,1.67
2018-08-11T09:27:05.104Z,1.20
2018-08-11T09:29:38.982Z,1.30
2018-08-11T09:32:11.857Z,1.67
2018-08-11T09:34:46.452Z,1.50
2018-08-11T09:37:19.113Z,1.40
2018-08-11T09:39:52.480Z,1.20
2018-08-11T09:42:30.051Z,1.20
2018-08-11T09:45:06.127Z,1.03
2018-08-11T09:47:40.991Z,1.17
2018-08-11T09:50:13.800Z,1.40
2018-08-11T09:52:47.803Z,1.10
2018-08-11T09:55:20.327Z,1.30
2018-08-11T09:57:54.812Z,1.13
2018-08-11T10:00:32.975Z,1.20
2018-08-11T10:03:11.136Z,1.20
2018-08-11T10:05:45.223Z,1.20
2018-08-11T10:08:17.974Z,1.10
2018-08-11T10:10:59.864Z,1.10
2018-08-11T10:13:33.925Z,1.10
2018-08-11T10:16:08.485Z,1.33
2018-08-11T10:18:42.639Z,1.20
2018-08-11T10:21:15.772Z,1.40
2018-08-11T10:23:51.556Z,1.37
2018-08-11T10:26:27.676Z,1.43
2018-08-11T10:29:00.653Z,1.07
2018-08-11T10:31:34.684Z,1.30
2018-08-11T10:34:10.690Z,1.10
2018-08-11T10:36:44.587Z,1.40
2018-08-11T10:39:17.276Z,1.60
2018-08-11T10:41:54.478Z,1.57
2018-08-11T10:44:31.293Z,1.27
2018-08-11T10:47:04.002Z,1.47
2018-08-11T10:49:36.994Z,2.13
2018-08-11T10:52:09.742Z,1.40
2018-08-11T10:54:42.406Z,1.33
2018-08-11T10:57:14.741Z,1.00
2018-08-11T10:59:49.020Z,1.50
2018-08-11T11:02:21.513Z,1.23
2018-08-11T11:04:54.118Z,1.17
2018-08-11T11:07:27.016Z,1.30
2018-08-11T11:10:00.735Z,1.17
2018-08-11T11:12:33.176Z,1.33
2018-08-11T11:15:09.188Z,1.53
2018-08-11T11:17:41.794Z,1.20
2018-08-11T11:20:23.618Z,1.10
2018-08-11T11:22:58.511Z,1.20
2018-08-11T11:25:33.064Z,0.83
2018-08-11T11:28:08.210Z,0.93
2018-08-11T11:30:42.640Z,0.87
2018-08-11T11:33:15.171Z,1.20
2018-08-11T11:35:48.416Z,1.23
2018-08-11T11:38:22.253Z,1.47
2018-08-11T11:40:55.425Z,0.97
2018-08-11T11:43:28.277Z,1.00
2018-08-11T11:46:01.100Z,0.90
2018-08-11T11:48:34.472Z,0.90
2018-08-11T11:51:08.172Z,0.93
2018-08-11T11:53:41.550Z,0.87
2018-08-11T11:56:16.076Z,1.30
2018-08-11T11:58:49.516Z,1.00
2018-08-11T12:01:25.724Z,1.00
2018-08-11T12:03:59.784Z,1.00
2018-08-11T12:06:32.382Z,1.00
2018-08-11T12:09:09.352Z,1.20
2018-08-11T12:11:41.868Z,1.10
2018-08-11T12:14:14.386Z,1.27
2018-08-11T12:16:52.128Z,0.90
2018-08-11T12:19:24.504Z,1.20
2018-08-11T12:21:57.188Z,0.70
2018-08-11T12:24:30.524Z,1.10
2018-08-11T12:27:03.974Z,1.17
2018-08-11T12:29:45.134Z,0.90
2018-08-11T12:32:21.408Z,1.00
2018-08-11T12:34:55.316Z,1.03
2018-08-11T12:37:28.220Z,1.00
2018-08-11T12:40:01.415Z,1.00
2018-08-11T12:42:36.574Z,1.00
2018-08-11T12:45:14.982Z,0.90
2018-08-11T12:47:47.480Z,1.00
2018-08-11T12:50:21.530Z,0.87
2018-08-11T12:53:00.833Z,0.97
2018-08-11T12:55:36.366Z,0.90
2018-08-11T12:58:20.632Z,1.20
2018-08-11T13:00:53.405Z,1.17
2018-08-11T13:03:29.741Z,0.80
2018-08-11T13:06:04.329Z,1.12
2018-08-11T13:08:37.641Z,0.80
2018-08-11T13:11:13.325Z,1.07
2018-08-11T13:13:47.768Z,1.07
2018-08-11T13:16:24.482Z,0.90
2018-08-11T13:19:02.078Z,1.07
2018-08-11T13:21:35.829Z,1.20
2018-08-11T13:24:10.840Z,0.87
2018-08-11T13:26:46.188Z,1.03
2018-08-11T13:29:18.629Z,0.80
2018-08-11T13:31:53.090Z,1.10
2018-08-11T13:34:28.388Z,0.93
2018-08-11T13:37:03.445Z,1.27
2018-08-11T13:39:45.344Z,0.70
2018-08-11T13:42:20.539Z,1.10
2018-08-11T13:44:53.105Z,0.80
2018-08-11T13:47:29.884Z,1.07
2018-08-11T13:50:06.303Z,0.73
2018-08-11T13:52:43.305Z,0.93
2018-08-11T13:55:25.609Z,0.87
2018-08-11T13:58:01.045Z,0.90
2018-08-11T14:00:35.576Z,0.90
2018-08-11T14:03:09.589Z,0.70
2018-08-11T14:05:45.313Z,0.80
2018-08-11T14:08:18.573Z,1.10
2018-08-11T14:10:52.098Z,0.80
2018-08-11T14:13:26.560Z,1.00
2018-08-11T14:15:59.201Z,1.17
2018-08-11T14:18:45.693Z,0.93
2018-08-11T14:21:22.681Z,0.90
2018-08-11T14:23:55.244Z,1.00
2018-08-11T14:26:30.038Z,1.20
2018-08-11T14:29:02.487Z,1.20
2018-08-11T14:31:35.371Z,1.80
2018-08-11T14:34:12.847Z,2.13
2018-08-11T14:36:45.538Z,1.97
2018-08-11T14:39:18.270Z,1.10
2018-08-11T14:41:50.834Z,1.20
2018-08-11T14:44:23.450Z,1.30
2018-08-11T14:46:56.062Z,1.30
2018-08-11T14:49:29.542Z,1.13
2018-08-11T14:52:03.725Z,1.33
2018-08-11T14:54:38.548Z,1.13
2018-08-11T14:57:11.718Z,1.40
2018-08-11T14:59:44.311Z,1.13
2018-08-11T15:02:18.682Z,1.20
2018-08-11T15:04:51.341Z,1.40
2018-08-11T15:07:24.743Z,1.17
2018-08-11T15:10:00.598Z,1.17
2018-08-11T15:12:34.152Z,1.20
2018-08-11T15:15:10.215Z,1.20
2018-08-11T15:17:47.800Z,1.20
2018-08-11T15:20:21.994Z,1.07
2018-08-11T15:22:54.679Z,1.13
2018-08-11T15:25:28.352Z,0.80
2018-08-11T15:28:01.548Z,0.97
2018-08-11T15:30:35.012Z,1.13
2018-08-11T15:33:09.886Z,1.10
2018-08-11T15:35:43.512Z,1.10
2018-08-11T15:38:18.535Z,0.90
2018-08-11T15:40:52.168Z,0.93
2018-08-11T15:43:25.650Z,0.87
2018-08-11T15:46:01.360Z,1.37
2018-08-11T15:48:35.860Z,1.17
2018-08-11T15:51:12.317Z,1.10
2018-08-11T15:53:44.950Z,1.00
2018-08-11T15:56:19.933Z,0.90
2018-08-11T15:58:53.989Z,1.10
2018-08-11T16:01:26.514Z,1.27
2018-08-11T16:03:59.096Z,0.80
2018-08-11T16:06:35.497Z,1.23
2018-08-11T16:09:12.171Z,1.40
2018-08-11T16:11:45.465Z,1.30
2018-08-11T16:14:21.675Z,1.13
2018-08-11T16:16:55.355Z,1.00
2018-08-11T16:19:31.202Z,1.20
2018-08-11T16:22:05.980Z,1.40
2018-08-11T16:24:40.661Z,1.20
2018-08-11T16:27:14.643Z,1.30
2018-08-11T16:29:48.018Z,1.23
2018-08-11T16:32:21.428Z,0.93
2018-08-11T16:34:54.569Z,1.10
2018-08-11T16:37:27.215Z,1.00
2018-08-11T16:39:59.833Z,1.00
2018-08-11T16:42:33.151Z,0.83
2018-08-11T16:45:07.068Z,1.00
2018-08-11T16:47:40.544Z,1.10
2018-08-11T16:50:13.637Z,1.10
2018-08-11T16:52:46.865Z,1.37
2018-08-11T16:55:21.657Z,1.10
2018-08-11T16:57:56.619Z,1.00
2018-08-11T17:00:30.729Z,1.03
2018-08-11T17:03:05.304Z,1.67
2018-08-11T17:05:38.827Z,1.95
2018-08-11T17:08:13.561Z,1.47
2018-08-11T17:10:46.058Z,1.67
2018-08-11T17:13:20.188Z,1.80
2018-08-11T17:15:53.930Z,1.50
2018-08-11T17:18:30.402Z,0.97
2018-08-11T17:21:04.617Z,1.43
2018-08-11T17:23:38.756Z,1.40
2018-08-11T17:26:12.004Z,1.30
2018-08-11T17:28:45.492Z,1.33
2018-08-11T17:31:21.584Z,1.70
2018-08-11T17:33:54.381Z,1.20
2018-08-11T17:36:27.663Z,1.33
2018-08-11T17:39:10.033Z,1.40
2018-08-11T17:41:45.729Z,1.80
2018-08-11T17:44:22.372Z,1.50
2018-08-11T17:46:57.737Z,1.20
2018-08-11T17:49:37.139Z,1.40
2018-08-11T17:52:11.896Z,1.20
2018-08-11T17:54:59.303Z,1.43
2018-08-11T17:57:38.952Z,1.13
2018-08-11T18:00:20.718Z,1.37
2018-08-11T18:02:58.810Z,1.40
2018-08-11T18:05:32.927Z,1.20
2018-08-11T18:08:06.488Z,1.20
2018-08-11T18:10:40.991Z,1.10
2018-08-11T18:13:13.766Z,1.10
2018-08-11T18:15:47.014Z,1.30
2018-08-11T18:18:20.980Z,1.30
2018-08-11T18:21:05.463Z,1.23
2018-08-11T18:23:40.339Z,1.20
2018-08-11T18:26:13.880Z,1.10
2018-08-11T18:28:48.946Z,1.20
2018-08-11T18:31:24.205Z,1.03
2018-08-11T18:33:57.729Z,1.48
2018-08-11T18:36:31.674Z,1.47
2018-08-11T18:39:11.879Z,1.30
2018-08-11T18:41:45.294Z,1.20
2018-08-11T18:44:18.287Z,1.30
2018-08-11T18:46:51.625Z,1.20
2018-08-11T18:49:25.366Z,1.50
2018-08-11T18:51:58.492Z,2.13
2018-08-11T18:54:32.676Z,1.80
2018-08-11T18:57:07.244Z,1.33
2018-08-11T18:59:40.382Z,1.77
2018-08-11T19:02:13.753Z,1.00
2018-08-11T19:04:47.359Z,1.17
2018-08-11T19:07:20.158Z,1.17
2018-08-11T19:09:54.540Z,1.13
2018-08-11T19:12:29.048Z,1.40
2018-08-11T19:15:05.646Z,1.30
2018-08-11T19:17:39.842Z,1.30
2018-08-11T19:20:16.729Z,1.10
2018-08-11T19:22:50.524Z,1.33
2018-08-11T19:25:28.146Z,1.20
2018-08-11T19:28:00.856Z,1.30
2018-08-11T19:30:39.233Z,2.07
2018-08-11T19:33:14.837Z,1.67
2018-08-11T19:35:49.842Z,1.30
2018-08-11T19:38:30.002Z,1.62
2018-08-11T19:41:02.862Z,1.70
2018-08-11T19:43:37.614Z,1.40
2018-08-11T19:46:15.258Z,1.50
2018-08-11T19:48:50.476Z,1.60
2018-08-11T19:51:24.788Z,1.60
2018-08-11T19:54:00.317Z,1.83
2018-08-11T19:56:36.019Z,1.70
2018-08-11T19:59:11.210Z,1.23
2018-08-11T20:01:43.762Z,1.93
2018-08-11T20:04:17.058Z,2.00
2018-08-11T20:06:52.149Z,1.97
2018-08-11T20:09:26.161Z,1.90
2018-08-11T20:11:58.857Z,1.80
2018-08-11T20:14:31.921Z,1.65
2018-08-11T20:17:05.197Z,1.60
2018-08-11T20:19:37.981Z,2.33
2018-08-11T20:22:18.755Z,2.57
2018-08-11T20:24:51.569Z,2.15
2018-08-11T20:27:28.617Z,2.23
2018-08-11T20:30:06.449Z,2.50
2018-08-11T20:32:39.105Z,2.63
2018-08-11T20:35:14.649Z,2.30
2018-08-11T20:37:50.169Z,1.97
2018-08-11T20:40:22.929Z,2.10
2018-08-11T20:42:59.952Z,2.07
2018-08-11T20:45:33.126Z,1.90
2018-08-11T20:48:09.170Z,2.00
2018-08-11T20:50:45.048Z,1.90
2018-08-11T20:53:21.931Z,1.87
2018-08-11T20:55:55.665Z,1.73
2018-08-11T20:58:36.497Z,2.30
2018-08-11T21:01:13.601Z,2.00
2018-08-11T21:03:51.408Z,2.00
2018-08-11T21:06:28.293Z,2.00
2018-08-11T21:09:01.395Z,2.03
2018-08-11T21:11:35.514Z,2.00
2018-08-11T21:14:10.708Z,2.10
2018-08-11T21:16:43.729Z,2.40
2018-08-11T21:19:19.332Z,2.10
2018-08-11T21:21:52.500Z,2.20
2018-08-11T21:24:30.832Z,2.40
2018-08-11T21:27:05.739Z,2.90
2018-08-11T21:29:38.476Z,2.73
2018-08-11T21:32:11.493Z,2.83
2018-08-11T21:34:44.973Z,3.53
2018-08-11T21:37:17.597Z,2.58
2018-08-11T21:39:53.833Z,2.43
2018-08-11T21:42:35.683Z,3.00
2018-08-11T21:45:10.008Z,2.90
2018-08-11T21:47:48.583Z,3.23
2018-08-11T21:50:21.936Z,3.50
2018-08-11T21:52:58.797Z,2.63
2018-08-11T21:55:37.225Z,3.00
2018-08-11T21:58:14.897Z,2.70
2018-08-11T22:00:55.655Z,2.40
2018-08-11T22:03:35.112Z,2.57
2018-08-11T22:06:09.558Z,3.20
2018-08-11T22:08:44.992Z,2.93
2018-08-11T22:11:18.248Z,2.80
2018-08-11T22:13:51.047Z,3.00
2018-08-11T22:16:24.488Z,3.10
2018-08-11T22:19:01.149Z,3.30
2018-08-11T22:21:36.574Z,3.30
2018-08-11T22:24:10.173Z,3.23
2018-08-11T22:26:43.505Z,3.30
2018-08-11T22:29:20.846Z,3.20
2018-08-11T22:31:53.890Z,3.57
2018-08-11T22:34:28.481Z,3.22
2018-08-11T22:37:05.896Z,3.50
2018-08-11T22:39:39.809Z,3.33
2018-08-11T22:42:12.691Z,3.50
2018-08-11T22:44:48.477Z,3.90
2018-08-11T22:47:22.967Z,3.23
2018-08-11T22:49:59.456Z,3.00
2018-08-11T22:52:33.485Z,3.67
2018-08-11T22:55:07.420Z,3.60
2018-08-11T22:57:40.326Z,3.37
2018-08-11T23:00:23.462Z,3.03
2018-08-11T23:02:56.057Z,3.53
2018-08-11T23:05:31.860Z,3.20
2018-08-11T23:08:05.517Z,3.20
2018-08-11T23:10:39.050Z,2.80
2018-08-11T23:13:12.843Z,3.27
2018-08-11T23:15:46.381Z,3.50
2018-08-11T23:18:19.966Z,4.20
2018-08-11T23:21:01.298Z,3.50
2018-08-11T23:23:34.441Z,3.80
2018-08-11T23:26:10.721Z,3.60
2018-08-11T23:28:46.832Z,3.80
2018-08-11T23:31:27.777Z,4.50
2018-08-11T23:34:02.477Z,4.00
2018-08-11T23:36:36.384Z,4.07
2018-08-11T23:39:11.895Z,4.10
2018-08-11T23:41:49.841Z,3.80
2018-08-11T23:44:23.390Z,4.40
2018-08-11T23:46:57.517Z,4.43
2018-08-11T23:49:30.161Z,3.60
2018-08-11T23:52:03.333Z,3.63
2018-08-11T23:54:40.663Z,3.77
2018-08-11T23:57:15.860Z,3.50
2018-08-11T23:59:49.145Z,3.83
